sensor_id;sensor_type;location;lat;lon;timestamp;P1;durP1;ratioP1;P2;durP2;ratioP2
10343;SDS011;5217;43.960;10.954;2022-10-03T00:01:16;4.90;;;1.58;;
10343;SDS011;5217;43.960;10.954;2022-10-03T00:03:57;5.30;;;1.50;;
10343;SDS011;5217;43.960;10.954;2022-10-03T00:06:42;3.28;;;1.65;;
10343;SDS011;5217;43.960;10.954;2022-10-03T00:09:25;3.58;;;1.60;;
10343;SDS011;5217;43.960;10.954;2022-10-03T00:12:11;2.78;;;1.60;;
10343;SDS011;5217;43.960;10.954;2022-10-03T00:14:48;3.63;;;1.20;;
10343;SDS011;5217;43.960;10.954;2022-10-03T00:17:28;3.95;;;1.50;;
10343;SDS011;5217;43.960;10.954;2022-10-03T00:20:11;4.70;;;1.60;;
10343;SDS011;5217;43.960;10.954;2022-10-03T00:23:00;3.08;;;1.45;;
10343;SDS011;5217;43.960;10.954;2022-10-03T00:25:36;4.60;;;1.52;;
10343;SDS011;5217;43.960;10.954;2022-10-03T00:28:15;4.68;;;1.58;;
10343;SDS011;5217;43.960;10.954;2022-10-03T00:30:56;5.07;;;1.42;;
10343;SDS011;5217;43.960;10.954;2022-10-03T00:33:42;2.80;;;1.50;;
10343;SDS011;5217;43.960;10.954;2022-10-03T00:36:24;5.70;;;1.65;;
10343;SDS011;5217;43.960;10.954;2022-10-03T00:42:10;7.03;;;1.92;;
10343;SDS011;5217;43.960;10.954;2022-10-03T00:47:59;4.30;;;1.73;;
10343;SDS011;5217;43.960;10.954;2022-10-03T00:50:55;2.95;;;1.50;;
10343;SDS011;5217;43.960;10.954;2022-10-03T00:53:49;4.28;;;1.58;;
10343;SDS011;5217;43.960;10.954;2022-10-03T00:56:35;4.25;;;1.65;;
10343;SDS011;5217;43.960;10.954;2022-10-03T00:59:22;4.68;;;1.40;;
10343;SDS011;5217;43.960;10.954;2022-10-03T01:02:12;2.50;;;1.27;;
10343;SDS011;5217;43.960;10.954;2022-10-03T01:04:53;4.25;;;1.45;;
10343;SDS011;5217;43.960;10.954;2022-10-03T01:07:38;3.97;;;1.60;;
10343;SDS011;5217;43.960;10.954;2022-10-03T01:10:31;4.15;;;1.50;;
10343;SDS011;5217;43.960;10.954;2022-10-03T01:13:18;4.18;;;1.63;;
10343;SDS011;5217;43.960;10.954;2022-10-03T01:15:55;4.30;;;1.70;;
10343;SDS011;5217;43.960;10.954;2022-10-03T01:18:36;2.63;;;1.40;;
10343;SDS011;5217;43.960;10.954;2022-10-03T01:21:13;3.13;;;1.40;;
10343;SDS011;5217;43.960;10.954;2022-10-03T01:24:00;4.25;;;1.60;;
10343;SDS011;5217;43.960;10.954;2022-10-03T01:26:50;5.65;;;1.65;;
10343;SDS011;5217;43.960;10.954;2022-10-03T01:29:29;2.53;;;1.30;;
10343;SDS011;5217;43.960;10.954;2022-10-03T01:32:27;2.58;;;1.52;;
10343;SDS011;5217;43.960;10.954;2022-10-03T01:35:05;3.28;;;1.50;;
10343;SDS011;5217;43.960;10.954;2022-10-03T01:37:46;2.25;;;1.30;;
10343;SDS011;5217;43.960;10.954;2022-10-03T01:40:23;3.90;;;1.27;;
10343;SDS011;5217;43.960;10.954;2022-10-03T01:43:00;8.02;;;1.40;;
10343;SDS011;5217;43.960;10.954;2022-10-03T01:45:44;4.63;;;1.63;;
10343;SDS011;5217;43.960;10.954;2022-10-03T01:48:21;5.80;;;1.50;;
10343;SDS011;5217;43.960;10.954;2022-10-03T01:50:58;4.07;;;1.38;;
10343;SDS011;5217;43.960;10.954;2022-10-03T01:53:34;5.72;;;1.67;;
10343;SDS011;5217;43.960;10.954;2022-10-03T01:56:14;4.75;;;1.58;;
10343;SDS011;5217;43.960;10.954;2022-10-03T01:58:56;2.50;;;1.30;;
10343;SDS011;5217;43.960;10.954;2022-10-03T02:01:33;1.95;;;1.20;;
10343;SDS011;5217;43.960;10.954;2022-10-03T02:04:13;3.03;;;1.38;;
10343;SDS011;5217;43.960;10.954;2022-10-03T02:06:50;4.03;;;1.70;;
10343;SDS011;5217;43.960;10.954;2022-10-03T02:09:27;3.40;;;1.33;;
10343;SDS011;5217;43.960;10.954;2022-10-03T02:12:10;3.83;;;1.40;;
10343;SDS011;5217;43.960;10.954;2022-10-03T02:14:50;2.90;;;1.50;;
10343;SDS011;5217;43.960;10.954;2022-10-03T02:17:41;3.15;;;1.83;;
10343;SDS011;5217;43.960;10.954;2022-10-03T02:20:17;8.70;;;1.50;;
10343;SDS011;5217;43.960;10.954;2022-10-03T02:22:54;2.83;;;1.30;;
10343;SDS011;5217;43.960;10.954;2022-10-03T02:25:25;2.97;;;1.30;;
10343;SDS011;5217;43.960;10.954;2022-10-03T02:28:13;5.70;;;1.70;;
10343;SDS011;5217;43.960;10.954;2022-10-03T02:37:15;3.70;;;1.40;;
10343;SDS011;5217;43.960;10.954;2022-10-03T02:40:16;2.70;;;1.40;;
10343;SDS011;5217;43.960;10.954;2022-10-03T02:43:24;2.25;;;1.25;;
10343;SDS011;5217;43.960;10.954;2022-10-03T02:46:25;3.63;;;1.33;;
10343;SDS011;5217;43.960;10.954;2022-10-03T02:49:30;4.18;;;1.60;;
10343;SDS011;5217;43.960;10.954;2022-10-03T02:52:23;4.03;;;1.40;;
10343;SDS011;5217;43.960;10.954;2022-10-03T02:55:29;4.32;;;1.52;;
10343;SDS011;5217;43.960;10.954;2022-10-03T02:58:24;1.83;;;1.30;;
10343;SDS011;5217;43.960;10.954;2022-10-03T03:01:22;3.72;;;1.40;;
10343;SDS011;5217;43.960;10.954;2022-10-03T03:07:28;4.38;;;1.50;;
10343;SDS011;5217;43.960;10.954;2022-10-03T03:10:10;3.30;;;1.35;;
10343;SDS011;5217;43.960;10.954;2022-10-03T03:13:08;3.72;;;1.40;;
10343;SDS011;5217;43.960;10.954;2022-10-03T03:16:08;3.78;;;1.27;;
10343;SDS011;5217;43.960;10.954;2022-10-03T03:19:17;2.72;;;1.27;;
10343;SDS011;5217;43.960;10.954;2022-10-03T03:22:19;3.38;;;1.63;;
10343;SDS011;5217;43.960;10.954;2022-10-03T03:25:20;4.63;;;1.65;;
10343;SDS011;5217;43.960;10.954;2022-10-03T03:28:05;3.50;;;1.40;;
10343;SDS011;5217;43.960;10.954;2022-10-03T03:30:47;5.50;;;1.40;;
10343;SDS011;5217;43.960;10.954;2022-10-03T03:33:25;1.77;;;1.13;;
10343;SDS011;5217;43.960;10.954;2022-10-03T03:36:03;2.75;;;1.30;;
10343;SDS011;5217;43.960;10.954;2022-10-03T03:38:41;3.72;;;1.33;;
10343;SDS011;5217;43.960;10.954;2022-10-03T03:41:26;4.22;;;1.40;;
10343;SDS011;5217;43.960;10.954;2022-10-03T03:44:18;2.28;;;1.20;;
10343;SDS011;5217;43.960;10.954;2022-10-03T03:47:00;2.83;;;1.30;;
10343;SDS011;5217;43.960;10.954;2022-10-03T03:49:53;5.45;;;1.50;;
10343;SDS011;5217;43.960;10.954;2022-10-03T03:52:43;3.20;;;1.50;;
10343;SDS011;5217;43.960;10.954;2022-10-03T03:55:29;1.90;;;1.25;;
10343;SDS011;5217;43.960;10.954;2022-10-03T03:58:18;3.88;;;1.38;;
10343;SDS011;5217;43.960;10.954;2022-10-03T04:04:14;3.45;;;1.23;;
10343;SDS011;5217;43.960;10.954;2022-10-03T04:06:52;3.15;;;1.65;;
10343;SDS011;5217;43.960;10.954;2022-10-03T04:12:26;2.78;;;1.38;;
10343;SDS011;5217;43.960;10.954;2022-10-03T04:15:08;5.07;;;1.50;;
10343;SDS011;5217;43.960;10.954;2022-10-03T04:17:53;3.90;;;1.23;;
10343;SDS011;5217;43.960;10.954;2022-10-03T04:23:51;2.78;;;1.27;;
10343;SDS011;5217;43.960;10.954;2022-10-03T04:26:32;5.40;;;1.92;;
10343;SDS011;5217;43.960;10.954;2022-10-03T04:32:12;3.70;;;1.48;;
10343;SDS011;5217;43.960;10.954;2022-10-03T04:34:56;3.72;;;1.42;;
10343;SDS011;5217;43.960;10.954;2022-10-03T04:37:43;3.13;;;1.65;;
10343;SDS011;5217;43.960;10.954;2022-10-03T04:40:20;2.05;;;1.25;;
10343;SDS011;5217;43.960;10.954;2022-10-03T04:43:00;3.17;;;1.50;;
10343;SDS011;5217;43.960;10.954;2022-10-03T04:48:29;2.17;;;1.30;;
10343;SDS011;5217;43.960;10.954;2022-10-03T04:51:06;3.95;;;1.30;;
10343;SDS011;5217;43.960;10.954;2022-10-03T04:53:46;3.72;;;1.40;;
10343;SDS011;5217;43.960;10.954;2022-10-03T04:56:34;4.38;;;1.63;;
10343;SDS011;5217;43.960;10.954;2022-10-03T04:59:16;2.92;;;1.52;;
10343;SDS011;5217;43.960;10.954;2022-10-03T05:02:05;3.65;;;1.30;;
10343;SDS011;5217;43.960;10.954;2022-10-03T05:04:50;3.92;;;1.40;;
10343;SDS011;5217;43.960;10.954;2022-10-03T05:07:34;3.70;;;1.58;;
10343;SDS011;5217;43.960;10.954;2022-10-03T05:10:19;2.17;;;1.30;;
10343;SDS011;5217;43.960;10.954;2022-10-03T05:12:57;3.83;;;1.38;;
10343;SDS011;5217;43.960;10.954;2022-10-03T05:15:31;3.20;;;1.48;;
10343;SDS011;5217;43.960;10.954;2022-10-03T05:18:04;4.47;;;1.50;;
10343;SDS011;5217;43.960;10.954;2022-10-03T05:20:43;3.38;;;1.20;;
10343;SDS011;5217;43.960;10.954;2022-10-03T05:23:22;2.30;;;1.37;;
10343;SDS011;5217;43.960;10.954;2022-10-03T05:25:59;3.33;;;1.30;;
10343;SDS011;5217;43.960;10.954;2022-10-03T05:28:53;2.05;;;1.23;;
10343;SDS011;5217;43.960;10.954;2022-10-03T05:31:33;1.85;;;1.30;;
10343;SDS011;5217;43.960;10.954;2022-10-03T05:34:21;2.10;;;1.42;;
10343;SDS011;5217;43.960;10.954;2022-10-03T05:37:05;2.90;;;1.30;;
10343;SDS011;5217;43.960;10.954;2022-10-03T05:39:54;6.97;;;1.65;;
10343;SDS011;5217;43.960;10.954;2022-10-03T05:42:31;4.40;;;1.40;;
10343;SDS011;5217;43.960;10.954;2022-10-03T05:45:04;2.03;;;1.40;;
10343;SDS011;5217;43.960;10.954;2022-10-03T05:47:48;5.28;;;1.50;;
10343;SDS011;5217;43.960;10.954;2022-10-03T05:50:32;3.28;;;1.38;;
10343;SDS011;5217;43.960;10.954;2022-10-03T05:53:13;2.35;;;1.55;;
10343;SDS011;5217;43.960;10.954;2022-10-03T05:55:58;3.67;;;1.52;;
10343;SDS011;5217;43.960;10.954;2022-10-03T05:58:39;4.07;;;1.40;;
10343;SDS011;5217;43.960;10.954;2022-10-03T06:01:33;6.97;;;1.80;;
10343;SDS011;5217;43.960;10.954;2022-10-03T06:07:22;3.50;;;1.70;;
10343;SDS011;5217;43.960;10.954;2022-10-03T06:12:54;3.58;;;1.63;;
10343;SDS011;5217;43.960;10.954;2022-10-03T06:15:45;2.83;;;1.67;;
10343;SDS011;5217;43.960;10.954;2022-10-03T06:25:02;3.20;;;1.60;;
10343;SDS011;5217;43.960;10.954;2022-10-03T06:28:10;3.08;;;1.63;;
10343;SDS011;5217;43.960;10.954;2022-10-03T06:31:21;4.60;;;1.60;;
10343;SDS011;5217;43.960;10.954;2022-10-03T06:37:18;4.93;;;1.73;;
10343;SDS011;5217;43.960;10.954;2022-10-03T06:43:11;5.55;;;1.60;;
10343;SDS011;5217;43.960;10.954;2022-10-03T06:45:59;4.45;;;2.03;;
10343;SDS011;5217;43.960;10.954;2022-10-03T06:48:59;3.58;;;1.40;;
10343;SDS011;5217;43.960;10.954;2022-10-03T06:52:10;3.47;;;1.60;;
10343;SDS011;5217;43.960;10.954;2022-10-03T06:55:19;3.83;;;1.58;;
10343;SDS011;5217;43.960;10.954;2022-10-03T07:01:29;4.15;;;1.70;;
10343;SDS011;5217;43.960;10.954;2022-10-03T07:07:41;7.72;;;1.90;;
10343;SDS011;5217;43.960;10.954;2022-10-03T07:10:40;7.65;;;2.53;;
10343;SDS011;5217;43.960;10.954;2022-10-03T07:13:41;12.50;;;2.85;;
10343;SDS011;5217;43.960;10.954;2022-10-03T07:16:40;4.97;;;2.00;;
10343;SDS011;5217;43.960;10.954;2022-10-03T07:19:39;3.88;;;1.80;;
10343;SDS011;5217;43.960;10.954;2022-10-03T07:28:53;2.15;;;1.40;;
10343;SDS011;5217;43.960;10.954;2022-10-03T07:31:46;2.67;;;1.80;;
10343;SDS011;5217;43.960;10.954;2022-10-03T07:37:56;2.72;;;1.73;;
10343;SDS011;5217;43.960;10.954;2022-10-03T07:41:24;2.95;;;1.45;;
10343;SDS011;5217;43.960;10.954;2022-10-03T08:00:16;8.32;;;4.20;;
10343;SDS011;5217;43.960;10.954;2022-10-03T08:03:07;8.50;;;4.38;;
10343;SDS011;5217;43.960;10.954;2022-10-03T08:06:16;8.32;;;4.07;;
10343;SDS011;5217;43.960;10.954;2022-10-03T08:08:54;6.85;;;4.05;;
10343;SDS011;5217;43.960;10.954;2022-10-03T08:11:44;7.18;;;3.78;;
10343;SDS011;5217;43.960;10.954;2022-10-03T08:14:38;7.07;;;3.67;;
10343;SDS011;5217;43.960;10.954;2022-10-03T08:17:22;8.10;;;3.15;;
10343;SDS011;5217;43.960;10.954;2022-10-03T08:23:22;7.00;;;2.95;;
10343;SDS011;5217;43.960;10.954;2022-10-03T08:26:16;5.70;;;2.97;;
10343;SDS011;5217;43.960;10.954;2022-10-03T08:29:02;7.40;;;3.03;;
10343;SDS011;5217;43.960;10.954;2022-10-03T08:31:56;4.95;;;2.50;;
10343;SDS011;5217;43.960;10.954;2022-10-03T08:35:01;6.30;;;2.50;;
10343;SDS011;5217;43.960;10.954;2022-10-03T08:37:52;5.18;;;2.40;;
10343;SDS011;5217;43.960;10.954;2022-10-03T08:41:06;5.63;;;2.45;;
10343;SDS011;5217;43.960;10.954;2022-10-03T08:50:26;7.07;;;2.70;;
10343;SDS011;5217;43.960;10.954;2022-10-03T08:53:28;5.63;;;2.70;;
10343;SDS011;5217;43.960;10.954;2022-10-03T08:56:16;5.32;;;2.55;;
10343;SDS011;5217;43.960;10.954;2022-10-03T09:02:26;3.92;;;2.40;;
10343;SDS011;5217;43.960;10.954;2022-10-03T09:12:05;8.00;;;2.63;;
10343;SDS011;5217;43.960;10.954;2022-10-03T09:15:04;6.00;;;2.60;;
10343;SDS011;5217;43.960;10.954;2022-10-03T09:23:43;7.25;;;2.40;;
10343;SDS011;5217;43.960;10.954;2022-10-03T09:29:56;6.32;;;2.60;;
10343;SDS011;5217;43.960;10.954;2022-10-03T09:36:12;4.55;;;2.28;;
10343;SDS011;5217;43.960;10.954;2022-10-03T09:38:58;7.43;;;3.75;;
10343;SDS011;5217;43.960;10.954;2022-10-03T09:44:41;13.70;;;6.20;;
10343;SDS011;5217;43.960;10.954;2022-10-03T09:54:24;9.13;;;5.10;;
10343;SDS011;5217;43.960;10.954;2022-10-03T09:57:24;5.68;;;2.83;;
10343;SDS011;5217;43.960;10.954;2022-10-03T10:00:24;5.10;;;2.40;;
10343;SDS011;5217;43.960;10.954;2022-10-03T10:03:09;5.85;;;2.40;;
10343;SDS011;5217;43.960;10.954;2022-10-03T10:24:04;8.05;;;2.60;;
10343;SDS011;5217;43.960;10.954;2022-10-03T10:26:57;4.90;;;2.38;;
10343;SDS011;5217;43.960;10.954;2022-10-03T10:29:49;8.05;;;2.28;;
10343;SDS011;5217;43.960;10.954;2022-10-03T10:39:14;6.45;;;2.58;;
10343;SDS011;5217;43.960;10.954;2022-10-03T10:45:22;5.03;;;2.30;;
10343;SDS011;5217;43.960;10.954;2022-10-03T10:48:13;5.15;;;2.50;;
10343;SDS011;5217;43.960;10.954;2022-10-03T10:51:11;4.32;;;2.08;;
10343;SDS011;5217;43.960;10.954;2022-10-03T10:54:34;5.82;;;2.30;;
10343;SDS011;5217;43.960;10.954;2022-10-03T10:57:21;4.22;;;2.10;;
10343;SDS011;5217;43.960;10.954;2022-10-03T11:00:06;4.38;;;2.22;;
10343;SDS011;5217;43.960;10.954;2022-10-03T11:09:20;5.22;;;2.20;;
10343;SDS011;5217;43.960;10.954;2022-10-03T11:31:13;9.20;;;2.80;;
10343;SDS011;5217;43.960;10.954;2022-10-03T11:34:20;5.45;;;2.60;;
10343;SDS011;5217;43.960;10.954;2022-10-03T11:40:25;4.55;;;2.40;;
10343;SDS011;5217;43.960;10.954;2022-10-03T11:43:03;7.00;;;2.67;;
10343;SDS011;5217;43.960;10.954;2022-10-03T11:45:53;5.43;;;2.42;;
10343;SDS011;5217;43.960;10.954;2022-10-03T11:48:32;4.38;;;2.28;;
10343;SDS011;5217;43.960;10.954;2022-10-03T11:51:06;3.95;;;2.33;;
10343;SDS011;5217;43.960;10.954;2022-10-03T11:53:44;6.90;;;2.45;;
10343;SDS011;5217;43.960;10.954;2022-10-03T11:56:33;6.50;;;2.35;;
10343;SDS011;5217;43.960;10.954;2022-10-03T11:59:16;4.07;;;2.58;;
10343;SDS011;5217;43.960;10.954;2022-10-03T12:02:02;5.82;;;2.60;;
10343;SDS011;5217;43.960;10.954;2022-10-03T12:04:43;5.95;;;2.20;;
10343;SDS011;5217;43.960;10.954;2022-10-03T12:07:19;6.70;;;2.50;;
10343;SDS011;5217;43.960;10.954;2022-10-03T12:10:28;7.28;;;2.60;;
10343;SDS011;5217;43.960;10.954;2022-10-03T12:13:07;4.78;;;2.42;;
10343;SDS011;5217;43.960;10.954;2022-10-03T12:15:41;5.88;;;2.40;;
10343;SDS011;5217;43.960;10.954;2022-10-03T12:18:14;6.45;;;2.60;;
10343;SDS011;5217;43.960;10.954;2022-10-03T12:24:00;5.60;;;2.38;;
10343;SDS011;5217;43.960;10.954;2022-10-03T12:26:43;5.22;;;2.45;;
10343;SDS011;5217;43.960;10.954;2022-10-03T12:29:19;4.55;;;2.15;;
10343;SDS011;5217;43.960;10.954;2022-10-03T12:31:55;8.85;;;5.35;;
10343;SDS011;5217;43.960;10.954;2022-10-03T12:34:34;10.70;;;4.07;;
10343;SDS011;5217;43.960;10.954;2022-10-03T12:40:13;5.80;;;2.83;;
10343;SDS011;5217;43.960;10.954;2022-10-03T12:42:46;6.00;;;2.53;;
10343;SDS011;5217;43.960;10.954;2022-10-03T12:45:22;6.22;;;3.00;;
10343;SDS011;5217;43.960;10.954;2022-10-03T12:47:58;7.05;;;2.78;;
10343;SDS011;5217;43.960;10.954;2022-10-03T12:50:40;6.10;;;2.50;;
10343;SDS011;5217;43.960;10.954;2022-10-03T12:56:15;5.45;;;2.50;;
10343;SDS011;5217;43.960;10.954;2022-10-03T12:58:52;6.05;;;2.60;;
10343;SDS011;5217;43.960;10.954;2022-10-03T13:01:25;4.75;;;2.40;;
10343;SDS011;5217;43.960;10.954;2022-10-03T13:04:07;6.70;;;2.85;;
10343;SDS011;5217;43.960;10.954;2022-10-03T13:06:47;4.93;;;2.40;;
10343;SDS011;5217;43.960;10.954;2022-10-03T13:09:34;5.50;;;2.50;;
10343;SDS011;5217;43.960;10.954;2022-10-03T13:12:22;5.22;;;2.30;;
10343;SDS011;5217;43.960;10.954;2022-10-03T13:18:15;4.78;;;2.10;;
10343;SDS011;5217;43.960;10.954;2022-10-03T13:21:02;4.88;;;2.45;;
10343;SDS011;5217;43.960;10.954;2022-10-03T13:23:55;5.38;;;2.58;;
10343;SDS011;5217;43.960;10.954;2022-10-03T13:26:34;5.53;;;2.60;;
10343;SDS011;5217;43.960;10.954;2022-10-03T13:29:17;6.57;;;2.63;;
10343;SDS011;5217;43.960;10.954;2022-10-03T13:32:01;8.40;;;3.08;;
10343;SDS011;5217;43.960;10.954;2022-10-03T13:34:44;4.50;;;2.55;;
10343;SDS011;5217;43.960;10.954;2022-10-03T13:37:23;4.88;;;2.58;;
10343;SDS011;5217;43.960;10.954;2022-10-03T13:40:01;4.38;;;2.10;;
10343;SDS011;5217;43.960;10.954;2022-10-03T13:42:36;5.85;;;2.58;;
10343;SDS011;5217;43.960;10.954;2022-10-03T13:45:13;5.22;;;2.13;;
10343;SDS011;5217;43.960;10.954;2022-10-03T13:47:45;3.88;;;2.10;;
10343;SDS011;5217;43.960;10.954;2022-10-03T13:50:20;5.97;;;2.20;;
10343;SDS011;5217;43.960;10.954;2022-10-03T13:52:54;4.75;;;2.35;;
10343;SDS011;5217;43.960;10.954;2022-10-03T13:55:30;4.03;;;2.15;;
10343;SDS011;5217;43.960;10.954;2022-10-03T13:58:16;2.83;;;2.00;;
10343;SDS011;5217;43.960;10.954;2022-10-03T14:01:12;4.63;;;2.30;;
10343;SDS011;5217;43.960;10.954;2022-10-03T14:04:08;4.97;;;2.50;;
10343;SDS011;5217;43.960;10.954;2022-10-03T14:06:54;4.22;;;2.33;;
10343;SDS011;5217;43.960;10.954;2022-10-03T14:09:37;5.32;;;2.40;;
10343;SDS011;5217;43.960;10.954;2022-10-03T14:12:27;4.05;;;2.08;;
10343;SDS011;5217;43.960;10.954;2022-10-03T14:15:24;3.70;;;1.90;;
10343;SDS011;5217;43.960;10.954;2022-10-03T14:18:02;5.35;;;2.42;;
10343;SDS011;5217;43.960;10.954;2022-10-03T14:20:40;3.53;;;2.20;;
10343;SDS011;5217;43.960;10.954;2022-10-03T14:23:46;3.95;;;2.22;;
10343;SDS011;5217;43.960;10.954;2022-10-03T14:26:23;4.47;;;2.08;;
10343;SDS011;5217;43.960;10.954;2022-10-03T14:28:59;4.05;;;2.10;;
10343;SDS011;5217;43.960;10.954;2022-10-03T14:31:34;4.28;;;2.30;;
10343;SDS011;5217;43.960;10.954;2022-10-03T14:34:10;4.57;;;2.30;;
10343;SDS011;5217;43.960;10.954;2022-10-03T14:36:48;4.53;;;2.55;;
10343;SDS011;5217;43.960;10.954;2022-10-03T14:39:23;5.60;;;3.65;;
10343;SDS011;5217;43.960;10.954;2022-10-03T14:42:05;5.93;;;3.58;;
10343;SDS011;5217;43.960;10.954;2022-10-03T14:44:53;4.90;;;3.90;;
10343;SDS011;5217;43.960;10.954;2022-10-03T14:47:30;4.03;;;2.97;;
10343;SDS011;5217;43.960;10.954;2022-10-03T14:50:02;3.88;;;2.58;;
10343;SDS011;5217;43.960;10.954;2022-10-03T14:52:33;5.25;;;2.50;;
10343;SDS011;5217;43.960;10.954;2022-10-03T14:55:07;4.13;;;2.10;;
10343;SDS011;5217;43.960;10.954;2022-10-03T14:57:41;2.47;;;1.92;;
10343;SDS011;5217;43.960;10.954;2022-10-03T15:00:36;2.70;;;1.95;;
10343;SDS011;5217;43.960;10.954;2022-10-03T15:03:19;4.63;;;2.35;;
10343;SDS011;5217;43.960;10.954;2022-10-03T15:08:55;6.07;;;2.50;;
10343;SDS011;5217;43.960;10.954;2022-10-03T15:11:28;5.00;;;2.40;;
10343;SDS011;5217;43.960;10.954;2022-10-03T15:14:01;4.72;;;2.38;;
10343;SDS011;5217;43.960;10.954;2022-10-03T15:16:33;3.97;;;2.25;;
10343;SDS011;5217;43.960;10.954;2022-10-03T15:19:07;4.40;;;2.30;;
10343;SDS011;5217;43.960;10.954;2022-10-03T15:21:43;7.53;;;3.75;;
10343;SDS011;5217;43.960;10.954;2022-10-03T15:24:17;7.82;;;3.20;;
10343;SDS011;5217;43.960;10.954;2022-10-03T15:26:53;7.40;;;2.70;;
10343;SDS011;5217;43.960;10.954;2022-10-03T15:29:26;5.15;;;2.35;;
10343;SDS011;5217;43.960;10.954;2022-10-03T15:31:57;5.38;;;2.80;;
10343;SDS011;5217;43.960;10.954;2022-10-03T15:34:28;6.45;;;2.78;;
10343;SDS011;5217;43.960;10.954;2022-10-03T15:37:00;5.72;;;2.85;;
10343;SDS011;5217;43.960;10.954;2022-10-03T15:39:37;4.85;;;2.40;;
10343;SDS011;5217;43.960;10.954;2022-10-03T15:42:18;5.13;;;2.40;;
10343;SDS011;5217;43.960;10.954;2022-10-03T15:44:50;3.72;;;2.22;;
10343;SDS011;5217;43.960;10.954;2022-10-03T15:47:21;5.28;;;2.40;;
10343;SDS011;5217;43.960;10.954;2022-10-03T15:49:52;4.22;;;2.15;;
10343;SDS011;5217;43.960;10.954;2022-10-03T15:52:25;5.18;;;2.45;;
10343;SDS011;5217;43.960;10.954;2022-10-03T15:55:02;6.18;;;2.42;;
10343;SDS011;5217;43.960;10.954;2022-10-03T15:57:38;4.97;;;2.30;;
10343;SDS011;5217;43.960;10.954;2022-10-03T16:00:18;3.92;;;2.30;;
10343;SDS011;5217;43.960;10.954;2022-10-03T16:02:52;3.38;;;1.98;;
10343;SDS011;5217;43.960;10.954;2022-10-03T16:05:25;3.13;;;1.90;;
10343;SDS011;5217;43.960;10.954;2022-10-03T16:07:57;5.53;;;2.05;;
10343;SDS011;5217;43.960;10.954;2022-10-03T16:10:31;4.15;;;2.22;;
10343;SDS011;5217;43.960;10.954;2022-10-03T16:13:05;5.30;;;2.50;;
10343;SDS011;5217;43.960;10.954;2022-10-03T16:16:04;4.95;;;2.42;;
10343;SDS011;5217;43.960;10.954;2022-10-03T16:18:41;4.88;;;2.65;;
10343;SDS011;5217;43.960;10.954;2022-10-03T16:21:14;8.13;;;2.90;;
10343;SDS011;5217;43.960;10.954;2022-10-03T16:23:49;5.57;;;2.70;;
10343;SDS011;5217;43.960;10.954;2022-10-03T16:26:25;5.88;;;2.70;;
10343;SDS011;5217;43.960;10.954;2022-10-03T16:29:00;4.43;;;2.50;;
10343;SDS011;5217;43.960;10.954;2022-10-03T16:31:38;7.57;;;3.13;;
10343;SDS011;5217;43.960;10.954;2022-10-03T16:34:11;6.65;;;3.55;;
10343;SDS011;5217;43.960;10.954;2022-10-03T16:36:44;6.97;;;3.97;;
10343;SDS011;5217;43.960;10.954;2022-10-03T16:39:17;10.32;;;5.70;;
10343;SDS011;5217;43.960;10.954;2022-10-03T16:41:50;10.88;;;7.25;;
10343;SDS011;5217;43.960;10.954;2022-10-03T16:44:25;13.15;;;8.15;;
10343;SDS011;5217;43.960;10.954;2022-10-03T16:47:06;11.90;;;8.90;;
10343;SDS011;5217;43.960;10.954;2022-10-03T16:49:38;14.27;;;8.63;;
10343;SDS011;5217;43.960;10.954;2022-10-03T16:52:29;11.38;;;8.65;;
10343;SDS011;5217;43.960;10.954;2022-10-03T16:55:01;12.50;;;8.63;;
10343;SDS011;5217;43.960;10.954;2022-10-03T16:57:37;9.45;;;7.75;;
10343;SDS011;5217;43.960;10.954;2022-10-03T17:00:13;10.93;;;7.65;;
10343;SDS011;5217;43.960;10.954;2022-10-03T17:02:44;8.38;;;5.90;;
10343;SDS011;5217;43.960;10.954;2022-10-03T17:05:14;8.43;;;5.80;;
10343;SDS011;5217;43.960;10.954;2022-10-03T17:07:44;8.02;;;4.90;;
10343;SDS011;5217;43.960;10.954;2022-10-03T17:10:24;8.95;;;4.70;;
10343;SDS011;5217;43.960;10.954;2022-10-03T17:13:02;5.72;;;4.07;;
10343;SDS011;5217;43.960;10.954;2022-10-03T17:15:43;9.52;;;4.05;;
10343;SDS011;5217;43.960;10.954;2022-10-03T17:18:17;8.82;;;4.00;;
10343;SDS011;5217;43.960;10.954;2022-10-03T17:20:52;8.23;;;3.67;;
10343;SDS011;5217;43.960;10.954;2022-10-03T17:23:28;7.07;;;3.47;;
10343;SDS011;5217;43.960;10.954;2022-10-03T17:26:03;6.47;;;3.20;;
10343;SDS011;5217;43.960;10.954;2022-10-03T17:28:38;5.75;;;3.10;;
10343;SDS011;5217;43.960;10.954;2022-10-03T17:31:25;7.53;;;3.20;;
10343;SDS011;5217;43.960;10.954;2022-10-03T17:34:03;6.03;;;3.03;;
10343;SDS011;5217;43.960;10.954;2022-10-03T17:36:47;5.38;;;2.83;;
10343;SDS011;5217;43.960;10.954;2022-10-03T17:39:37;6.50;;;2.70;;
10343;SDS011;5217;43.960;10.954;2022-10-03T17:42:17;7.20;;;2.70;;
10343;SDS011;5217;43.960;10.954;2022-10-03T17:45:11;5.30;;;2.67;;
10343;SDS011;5217;43.960;10.954;2022-10-03T17:48:03;6.38;;;2.78;;
10343;SDS011;5217;43.960;10.954;2022-10-03T17:50:42;3.45;;;2.30;;
10343;SDS011;5217;43.960;10.954;2022-10-03T17:53:21;6.63;;;2.42;;
10343;SDS011;5217;43.960;10.954;2022-10-03T17:55:54;7.25;;;2.65;;
10343;SDS011;5217;43.960;10.954;2022-10-03T17:58:25;4.20;;;2.30;;
10343;SDS011;5217;43.960;10.954;2022-10-03T18:01:04;4.38;;;2.45;;
10343;SDS011;5217;43.960;10.954;2022-10-03T18:09:27;4.57;;;2.25;;
10343;SDS011;5217;43.960;10.954;2022-10-03T18:12:01;4.88;;;2.70;;
10343;SDS011;5217;43.960;10.954;2022-10-03T18:14:49;5.32;;;2.88;;
10343;SDS011;5217;43.960;10.954;2022-10-03T18:17:46;5.95;;;2.58;;
10343;SDS011;5217;43.960;10.954;2022-10-03T18:20:29;6.43;;;2.60;;
10343;SDS011;5217;43.960;10.954;2022-10-03T18:23:09;4.75;;;2.50;;
10343;SDS011;5217;43.960;10.954;2022-10-03T18:26:09;5.75;;;2.70;;
10343;SDS011;5217;43.960;10.954;2022-10-03T18:28:46;4.18;;;2.60;;
10343;SDS011;5217;43.960;10.954;2022-10-03T18:31:22;6.00;;;2.40;;
10343;SDS011;5217;43.960;10.954;2022-10-03T18:33:56;6.53;;;2.20;;
10343;SDS011;5217;43.960;10.954;2022-10-03T18:36:29;8.30;;;2.25;;
10343;SDS011;5217;43.960;10.954;2022-10-03T18:39:01;4.68;;;2.00;;
10343;SDS011;5217;43.960;10.954;2022-10-03T18:41:42;5.10;;;2.20;;
10343;SDS011;5217;43.960;10.954;2022-10-03T18:44:12;5.13;;;2.22;;
10343;SDS011;5217;43.960;10.954;2022-10-03T18:46:45;4.60;;;2.30;;
10343;SDS011;5217;43.960;10.954;2022-10-03T18:49:19;5.55;;;2.35;;
10343;SDS011;5217;43.960;10.954;2022-10-03T18:52:02;4.45;;;2.20;;
10343;SDS011;5217;43.960;10.954;2022-10-03T18:54:39;4.30;;;2.20;;
10343;SDS011;5217;43.960;10.954;2022-10-03T18:57:21;9.23;;;2.47;;
10343;SDS011;5217;43.960;10.954;2022-10-03T18:59:54;5.18;;;2.10;;
10343;SDS011;5217;43.960;10.954;2022-10-03T19:02:29;4.78;;;2.10;;
10343;SDS011;5217;43.960;10.954;2022-10-03T19:05:04;9.57;;;2.47;;
10343;SDS011;5217;43.960;10.954;2022-10-03T19:07:42;12.48;;;2.67;;
10343;SDS011;5217;43.960;10.954;2022-10-03T19:10:29;4.25;;;2.20;;
10343;SDS011;5217;43.960;10.954;2022-10-03T19:13:10;4.40;;;2.00;;
10343;SDS011;5217;43.960;10.954;2022-10-03T19:15:49;3.05;;;1.90;;
10343;SDS011;5217;43.960;10.954;2022-10-03T19:18:46;3.80;;;1.98;;
10343;SDS011;5217;43.960;10.954;2022-10-03T19:21:22;6.10;;;1.90;;
10343;SDS011;5217;43.960;10.954;2022-10-03T19:23:52;5.97;;;2.03;;
10343;SDS011;5217;43.960;10.954;2022-10-03T19:26:31;3.33;;;1.80;;
10343;SDS011;5217;43.960;10.954;2022-10-03T19:29:03;3.88;;;1.95;;
10343;SDS011;5217;43.960;10.954;2022-10-03T19:31:36;7.70;;;2.38;;
10343;SDS011;5217;43.960;10.954;2022-10-03T19:34:11;4.93;;;1.98;;
10343;SDS011;5217;43.960;10.954;2022-10-03T19:36:45;5.63;;;2.00;;
10343;SDS011;5217;43.960;10.954;2022-10-03T19:39:16;4.03;;;2.17;;
10343;SDS011;5217;43.960;10.954;2022-10-03T19:41:48;4.00;;;2.25;;
10343;SDS011;5217;43.960;10.954;2022-10-03T19:44:22;6.18;;;2.05;;
10343;SDS011;5217;43.960;10.954;2022-10-03T19:46:56;5.68;;;2.17;;